This is the latest recevied weather packets stored in our database for station/object KO4ILY. If no packets are shown the sender has not sent any weather packets the latest 10 day(s).
| Time | Temp. | Humidity | Pressure | Rain* | Wind** | Luminosity | Snow |
|---|---|---|---|---|---|---|---|
| 1777266316 | 15.56° C | 84% | 1016 hPa | 0 mm | - | 0 W/m² | - |
| 1777265716 | 15.56° C | 84% | 1016 hPa | 0 mm | - | 0 W/m² | - |
| 1777265117 | 15.56° C | 83% | 1015.9 hPa | 0 mm | - | 0 W/m² | - |
| 1777264517 | 15.56° C | 83% | 1015.8 hPa | 0 mm | - | 0 W/m² | - |
| 1777262118 | 16.11° C | 80% | 1015.6 hPa | 0 mm | - | 0 W/m² | - |
| 1777260919 | 16.11° C | 79% | 1015.4 hPa | 0 mm | - | 0 W/m² | - |
| 1777259718 | 16.67° C | 77% | 1015.2 hPa | 0 mm | - | 0 W/m² | - |
| 1777258519 | 17.22° C | 75% | 1015.2 hPa | 0 mm | - | 0 W/m² | - |
| 1777257919 | 17.22° C | 74% | 1015.2 hPa | 0 mm | - | 0 W/m² | - |
| 1777256716 | 18.33° C | 73% | 1015.1 hPa | 0 mm | - | 0 W/m² | - |
| 1777249518 | 21.11° C | 63% | 1013.6 hPa | 0 mm | - | 2 W/m² | - |
| 1777245316 | 24.44° C | 55% | 1013 hPa | 0 mm | - | 55 W/m² | - |
| 1777242317 | 26.67° C | 48% | 1012.9 hPa | 0 mm | - | 56 W/m² | - |
| 1777241737 | 27.22° C | 45% | 1012.9 hPa | 0 mm | - | 61 W/m² | - |
| 1777238718 | 28.33° C | 44% | 1012.8 hPa | 0 mm | - | 576 W/m² | - |
| 1777236918 | 28.89° C | 47% | 1012.8 hPa | 0 mm | - | 685 W/m² | - |
| 1777233917 | 26.67° C | 56% | 1013.2 hPa | 0 mm | - | 829 W/m² | - |
| 1777227339 | 23.89° C | 67% | 1014.2 hPa | 0 mm | - | 1001 W/m² | - |
| 1777223716 | 21.11° C | 75% | 1014.9 hPa | 0 mm | - | 766 W/m² | - |
| 1777219538 | 20° C | 78% | 1015 hPa | 0 mm | - | 294 W/m² | - |
| 1777216519 | 20° C | 81% | 1014.9 hPa | 0 mm | - | 241 W/m² | - |
| 1777212317 | 16.67° C | 90% | 1014.4 hPa | 0 mm | - | 151 W/m² | - |
| 1777211717 | 16.67° C | 91% | 1014.3 hPa | 0 mm | - | 142 W/m² | - |
| 1777208118 | 15° C | 97% | 1013.9 hPa | 0 mm | - | 53 W/m² | - |
| 1777205116 | 14.44° C | 97% | 1013.4 hPa | 0 mm | - | 40 W/m² | - |
* Rain latest hour (hover to see other rain measurements)
** Current wind speed in m/s (hover to see current wind gust speed)